Portada
METAR-TAF:

METAR-TAF

Aeroports :

Aeroport Internacional de Hong Kong

Hong Kong, Xina

latitud: 22-19N, longitud: 113-55E, altitud: 9 m

Observació

L'informe es va fer fa 12 minuts, a les 13:30 UTC
Vent 6 kt del Sud-Est, variant entre Est i Sud
Temperatura 29°C
Humitat 70%
Pressió 1008 hPa
Visibilitat 10 km o més
Escasses núvols a una alçada de 2700 ft

METAR: VHHH 201330Z 13006KT 090V180 9999 FEW027 29/23 Q1008 NOSIG

Hora: 21:42 (13:42 UTC)

Pronòstic

L'informe es va fer fa 2 hores i 42 minuts, a les 11:00 UTC
Pronòstic vàlid del 20 a les 12 UTC al 21 a les 18 UTC
Vent 10 kt del Sud-Oest
Visibilitat 10 km o més
Escasses núvols a una alçada de 2500 ft
Temporalment
l' 20 a les 12 UTC al 20 a les 24 UTC
Vent 5 kt amb direcció variable
Temporalment
l' 21 a les 11 UTC al 21 a les 18 UTC
Vent 5 kt amb direcció variable

TAF: VHHH 201100Z 2012/2118 22010KT 9999 FEW025 TX35/2106Z TN28/2021Z TEMPO 2012/2024 VRB05KT TEMPO 2111/2118 VRB05KT

Observacions i pronòstics meteorològics de més de 4000 aeroports (METAR i TAF).

Les estacions disponibles són els punts grocs i vermells al mapa.

Posi el ratolí al punt desitjat per veure el nom de l'estació.

Feu clic per veure les observacions i els pronòstics meteorològics.

Per canviar el mapa: feu clic els botons verds amb una creu de color negre per apropar; al botó verd amb un guió per allunyar la imatge; o en les fletxes verdes per a mapes adjacents.


METAR-TAF: